This is the latest recevied weather packets stored in our database for station/object DL5DI-H. If no packets are shown the sender has not sent any weather packets the latest 10 day(s).
| Time | Temp. | Humidity | Pressure | Rain* | Wind** | Luminosity | Snow |
|---|---|---|---|---|---|---|---|
| 1776991801 | 10° C | 64% | 1025.6 hPa | 0 mm | - | - | - |
| 1776991205 | 10° C | 64% | 1025.6 hPa | 0 mm | - | - | - |
| 1776990605 | 10° C | 64% | 1025.6 hPa | 0 mm | - | - | - |
| 1776990005 | 10° C | 64% | 1025.6 hPa | 0 mm | - | - | - |
| 1776989404 | 10° C | 64% | 1025.6 hPa | 0 mm | - | - | - |
| 1776988804 | 10° C | 64% | 1025.6 hPa | 0 mm | - | - | - |
| 1776988204 | 10° C | 63% | 1025.6 hPa | 0 mm | - | - | - |
| 1776987604 | 9.44° C | 63% | 1025.8 hPa | 0 mm | - | - | - |
| 1776987004 | 9.44° C | 63% | 1025.8 hPa | 0 mm | - | - | - |
| 1776985801 | 10.56° C | 59% | 1025.9 hPa | 0 mm | - | - | - |
| 1776984601 | 11.11° C | 58% | 1025.8 hPa | 0 mm | - | - | - |
| 1776984001 | 12.22° C | 53% | 1025.9 hPa | 0 mm | - | - | - |
| 1776983400 | 12.22° C | 53% | 1025.9 hPa | 0 mm | - | - | - |
| 1776982805 | 12.22° C | 53% | 1025.9 hPa | 0 mm | - | - | - |
| 1776982204 | 12.22° C | 53% | 1025.9 hPa | 0 mm | - | - | - |
| 1776981605 | 12.22° C | 53% | 1025.9 hPa | 0 mm | - | - | - |
| 1776981004 | 12.78° C | 51% | 1026 hPa | 0 mm | - | - | - |
| 1776979805 | 12.78° C | 51% | 1025.9 hPa | 0 mm | - | - | - |
| 1776979204 | 13.33° C | 50% | 1025.9 hPa | 0 mm | - | - | - |
| 1776978604 | 13.33° C | 50% | 1025.9 hPa | 0 mm | - | - | - |
| 1776978001 | 13.33° C | 48% | 1025.9 hPa | 0 mm | - | - | - |
| 1776977400 | 13.89° C | 46% | 1025.9 hPa | 0 mm | - | - | - |
| 1776976804 | 14.44° C | 40% | 1025.9 hPa | 0 mm | - | - | - |
| 1776976200 | 14.44° C | 40% | 1025.9 hPa | 0 mm | - | - | - |
| 1776975601 | 14.44° C | 40% | 1025.9 hPa | 0 mm | - | - | - |
* Rain latest hour (hover to see other rain measurements)
** Current wind speed in m/s (hover to see current wind gust speed)